Карточка аэропорта UNWW

Внимание!
Информация на этой странице в стадии наполнения.
Если вы не увидели какой-то информации, или заметили неточность - пожалуйста сообщите нам!
Спасибо!
Команда RU-STAFF
Название аэропортаСпиченково
Название аэропорта (англ.)Spichenkovo
Превышение1023 ft. (311.8 m.)
Координаты53°48.714', 86°52.704'
Высота перехода800m
Эшелон переходаFL050
Коды ответчика5270-5277
Зона ОрВДНовосибирск РПИ (UNNT)
Данные METARUNWW 181630Z 15003MPS 9999 SCT043CB 10/02 Q1016 R19/09//55 NOSIG RMK QFE735
Проноз погоды (TAF)UNWW 181524Z 1815/1915 20003G08MPS 8000 BKN040CB TX15/1908Z TN08/1822Z TEMPO 1815/1817 23008G16MPS TEMPO 1817/1902 1000 TSRA BKN005 BKN011CB BECMG 1819/1822 23011G25MPS TEMPO 1902/1906 -SHRA BKN016CB BECMG 1903/1905 30006G13MPS
NOTAMshow/hide NOTAM
AWOS   TABLE

Информация о ВПП

ВПП Длина ВПП (м.) Покрытие Курс ВПП Частота ILS
192679Цементобетон194111.1
012679Цементобетон14 

Диспетчерские позиции

Позывной Наименование органа УВД Частота
UNWW_APPНовокузнецк-Подход118.6
UNWW_TWRНовокузнецк-Старт121.2



Спутниковое изображение